createdAt,value
2022-11-09T00:01:02.014Z,3.70
2022-11-09T00:03:28.446Z,3.70
2022-11-09T00:05:58.393Z,3.70
2022-11-09T00:08:24.989Z,3.71
2022-11-09T00:10:51.482Z,3.60
2022-11-09T00:13:18.306Z,3.59
2022-11-09T00:15:44.993Z,3.61
2022-11-09T00:18:11.408Z,3.64
2022-11-09T00:20:37.804Z,3.65
2022-11-09T00:23:04.201Z,3.58
2022-11-09T00:25:30.804Z,3.55
2022-11-09T00:27:57.182Z,3.52
2022-11-09T00:30:23.569Z,3.53
2022-11-09T00:32:49.939Z,3.53
2022-11-09T00:35:16.376Z,3.49
2022-11-09T00:37:42.878Z,3.34
2022-11-09T00:40:09.762Z,3.26
2022-11-09T00:42:36.141Z,3.22
2022-11-09T00:45:02.530Z,3.28
2022-11-09T00:47:28.898Z,3.32
2022-11-09T00:49:55.673Z,3.35
2022-11-09T00:52:22.024Z,3.39
2022-11-09T00:54:48.407Z,3.46
2022-11-09T00:57:14.782Z,3.56
2022-11-09T00:59:41.138Z,3.63
2022-11-09T01:02:07.519Z,3.69
2022-11-09T01:04:34.036Z,3.72
2022-11-09T01:07:00.448Z,3.79
2022-11-09T01:09:27.125Z,3.82
2022-11-09T01:11:53.857Z,3.86
2022-11-09T01:14:20.217Z,3.98
2022-11-09T01:16:46.585Z,4.06
2022-11-09T01:19:13.039Z,4.14
2022-11-09T01:21:39.470Z,4.14
2022-11-09T01:24:05.867Z,4.27
2022-11-09T01:26:33.809Z,4.54
2022-11-09T01:29:00.623Z,4.77
2022-11-09T01:31:27.255Z,4.91
2022-11-09T01:33:53.679Z,4.89
2022-11-09T01:36:22.707Z,5.05
2022-11-09T01:38:49.715Z,5.15
2022-11-09T01:41:17.848Z,5.19
2022-11-09T01:43:45.110Z,5.26
2022-11-09T01:46:22.915Z,5.30
2022-11-09T01:48:51.807Z,5.37
2022-11-09T01:51:23.956Z,5.38
2022-11-09T01:53:52.865Z,5.38
2022-11-09T01:56:19.787Z,5.40
2022-11-09T01:58:48.901Z,5.41
2022-11-09T02:01:16.276Z,5.53
2022-11-09T02:03:44.689Z,5.57
2022-11-09T02:06:12.544Z,5.57
2022-11-09T02:08:39.611Z,5.56
2022-11-09T02:11:10.153Z,5.54
2022-11-09T02:13:41.851Z,5.54
2022-11-09T02:16:09.288Z,5.51
2022-11-09T02:18:36.536Z,5.51
2022-11-09T02:21:03.001Z,5.49
2022-11-09T02:23:29.690Z,5.44
2022-11-09T02:25:58.850Z,5.42
2022-11-09T02:28:26.380Z,5.42
2022-11-09T02:30:54.304Z,5.41
2022-11-09T02:33:21.113Z,5.41
2022-11-09T02:35:47.819Z,5.45
2022-11-09T02:38:14.748Z,5.49
2022-11-09T02:40:43.155Z,5.48
2022-11-09T02:43:10.444Z,5.47
2022-11-09T02:45:37.201Z,5.45
2022-11-09T02:48:03.803Z,5.48
2022-11-09T02:50:30.172Z,5.52
2022-11-09T02:52:56.542Z,5.50
2022-11-09T02:55:22.959Z,5.44
2022-11-09T02:57:49.330Z,5.35
2022-11-09T03:00:15.909Z,5.23
2022-11-09T03:02:42.368Z,5.19
2022-11-09T03:05:08.878Z,5.01
2022-11-09T03:07:35.300Z,5.01
2022-11-09T03:10:01.733Z,4.95
2022-11-09T03:12:30.875Z,4.97
2022-11-09T03:14:58.115Z,5.02
2022-11-09T03:17:24.788Z,5.05
2022-11-09T03:19:51.202Z,5.09
2022-11-09T03:22:17.806Z,5.14
2022-11-09T03:24:44.251Z,5.18
2022-11-09T03:27:10.972Z,5.23
2022-11-09T03:29:37.525Z,5.25
2022-11-09T03:32:04.132Z,5.24
2022-11-09T03:34:30.574Z,5.36
2022-11-09T03:36:56.975Z,5.46
2022-11-09T03:39:23.847Z,5.52
2022-11-09T03:41:50.410Z,5.54
2022-11-09T03:44:16.874Z,5.58
2022-11-09T03:46:43.267Z,5.58
2022-11-09T03:49:09.693Z,5.61
2022-11-09T03:51:36.076Z,5.64
2022-11-09T03:54:02.523Z,5.65
2022-11-09T03:56:28.932Z,5.64
2022-11-09T03:58:55.339Z,5.62
2022-11-09T04:01:21.882Z,5.64
2022-11-09T04:03:48.339Z,5.65
2022-11-09T04:06:14.763Z,5.67
2022-11-09T04:08:41.123Z,5.71
2022-11-09T04:11:07.505Z,5.77
2022-11-09T04:13:33.870Z,5.81
2022-11-09T04:16:00.268Z,5.79
2022-11-09T04:18:26.643Z,5.72
2022-11-09T04:20:53.070Z,5.65
2022-11-09T04:23:19.783Z,5.61
2022-11-09T04:25:46.425Z,5.53
2022-11-09T04:28:13.112Z,5.47
2022-11-09T04:30:39.860Z,5.36
2022-11-09T04:33:06.266Z,5.24
2022-11-09T04:35:33.223Z,5.12
2022-11-09T04:38:01.396Z,5.07
2022-11-09T04:40:28.778Z,5.02
2022-11-09T04:42:55.465Z,4.98
2022-11-09T04:45:22.233Z,4.91
2022-11-09T04:47:48.882Z,4.82
2022-11-09T04:50:15.488Z,4.74
2022-11-09T04:52:41.951Z,4.67
2022-11-09T04:55:08.520Z,4.60
2022-11-09T04:57:34.894Z,4.57
2022-11-09T05:00:01.265Z,4.53
2022-11-09T05:02:27.666Z,4.52
2022-11-09T05:04:54.050Z,4.46
2022-11-09T05:07:20.447Z,4.42
2022-11-09T05:09:46.808Z,4.37
2022-11-09T05:12:13.394Z,4.31
2022-11-09T05:14:39.784Z,4.27
2022-11-09T05:17:06.780Z,4.24
2022-11-09T05:19:33.149Z,4.20
2022-11-09T05:22:19.504Z,4.19
2022-11-09T05:24:46.245Z,4.23
2022-11-09T05:27:12.631Z,4.26
2022-11-09T05:29:39.004Z,4.33
2022-11-09T05:32:05.615Z,4.39
2022-11-09T05:34:32.661Z,4.42
2022-11-09T05:37:03.325Z,4.45
2022-11-09T05:39:30.134Z,4.45
2022-11-09T05:41:56.495Z,4.50
2022-11-09T05:44:29.263Z,4.55
2022-11-09T05:46:55.625Z,4.64
2022-11-09T05:49:22.051Z,4.67
2022-11-09T05:51:48.436Z,4.69
2022-11-09T05:54:14.824Z,4.67
2022-11-09T05:56:41.179Z,4.66
2022-11-09T05:59:08.395Z,4.67
2022-11-09T06:01:34.775Z,4.71
2022-11-09T06:04:01.147Z,4.79
2022-11-09T06:06:27.562Z,4.87
2022-11-09T06:08:54.029Z,4.91
2022-11-09T06:11:23.936Z,4.89
2022-11-09T06:13:51.441Z,4.85
2022-11-09T06:16:17.919Z,4.74
2022-11-09T06:18:44.287Z,4.69
2022-11-09T06:21:11.104Z,4.65
2022-11-09T06:23:37.560Z,4.67
2022-11-09T06:26:09.189Z,4.70
2022-11-09T06:28:36.842Z,4.71
2022-11-09T06:31:04.438Z,4.75
2022-11-09T06:33:31.881Z,4.76
2022-11-09T06:35:58.672Z,4.82
2022-11-09T06:38:26.558Z,4.92
2022-11-09T06:40:56.856Z,5.00
2022-11-09T06:43:24.039Z,5.06
2022-11-09T06:45:51.129Z,5.14
2022-11-09T06:48:17.738Z,5.23
2022-11-09T06:50:44.217Z,5.33
2022-11-09T06:53:11.856Z,5.40
2022-11-09T06:55:38.272Z,5.47
2022-11-09T06:58:08.860Z,5.52
2022-11-09T07:00:35.722Z,5.56
2022-11-09T07:03:02.559Z,5.60
2022-11-09T07:05:28.950Z,5.65
2022-11-09T07:07:55.351Z,5.69
2022-11-09T07:10:21.746Z,5.75
2022-11-09T07:12:48.293Z,5.78
2022-11-09T07:15:14.716Z,5.81
2022-11-09T07:17:48.331Z,5.84
2022-11-09T07:20:15.136Z,5.88
2022-11-09T07:22:42.080Z,5.92
2022-11-09T07:25:13.682Z,5.95
2022-11-09T07:27:40.104Z,5.99
2022-11-09T07:30:06.839Z,6.04
2022-11-09T07:33:07.596Z,6.09
2022-11-09T07:35:20.588Z,6.12
2022-11-09T07:37:46.982Z,6.19
2022-11-09T07:40:13.523Z,6.22
2022-11-09T07:42:39.910Z,6.27
2022-11-09T07:45:06.648Z,6.32
2022-11-09T07:47:33.028Z,6.42
2022-11-09T07:49:59.394Z,6.46
2022-11-09T07:52:25.792Z,6.51
2022-11-09T07:54:52.539Z,6.55
2022-11-09T07:57:18.993Z,6.59
2022-11-09T07:59:45.370Z,6.61
2022-11-09T08:02:12.162Z,6.63
2022-11-09T08:04:39.110Z,6.64
2022-11-09T08:07:05.614Z,6.69
2022-11-09T08:09:32.112Z,6.72
2022-11-09T08:11:58.478Z,6.77
2022-11-09T08:14:25.039Z,6.79
2022-11-09T08:16:52.537Z,6.82
2022-11-09T08:19:18.919Z,6.82
2022-11-09T08:21:45.339Z,6.90
2022-11-09T08:24:11.729Z,6.92
2022-11-09T08:26:38.101Z,6.95
2022-11-09T08:29:04.468Z,7.00
2022-11-09T08:31:31.075Z,7.01
2022-11-09T08:33:57.470Z,7.00
2022-11-09T08:36:26.053Z,7.03
2022-11-09T08:38:52.846Z,7.02
2022-11-09T08:41:19.295Z,7.02
2022-11-09T08:43:45.737Z,7.04
2022-11-09T08:46:12.128Z,7.09
2022-11-09T08:48:38.534Z,7.11
2022-11-09T08:51:04.944Z,7.12
2022-11-09T08:53:31.397Z,7.15
2022-11-09T08:55:58.017Z,7.21
2022-11-09T08:58:24.508Z,7.23
2022-11-09T09:00:51.167Z,7.25
2022-11-09T09:03:17.643Z,7.28
2022-11-09T09:05:44.354Z,7.32
2022-11-09T09:08:12.899Z,7.36
2022-11-09T09:10:40.522Z,7.42
2022-11-09T09:13:06.959Z,7.45
2022-11-09T09:15:33.733Z,7.50
2022-11-09T09:18:01.315Z,7.54
2022-11-09T09:20:27.990Z,7.59
2022-11-09T09:22:54.718Z,7.63
2022-11-09T09:25:21.109Z,7.70
2022-11-09T09:27:47.517Z,7.79
2022-11-09T09:30:14.293Z,7.83
2022-11-09T09:32:40.690Z,7.83
2022-11-09T09:35:07.250Z,7.88
2022-11-09T09:37:33.838Z,7.91
2022-11-09T09:40:00.270Z,7.93
2022-11-09T09:42:32.255Z,7.97
2022-11-09T09:45:08.231Z,8.00
2022-11-09T09:47:43.888Z,8.02
2022-11-09T09:50:12.771Z,8.03
2022-11-09T09:52:50.637Z,8.07
2022-11-09T09:55:35.942Z,8.13
2022-11-09T09:58:22.987Z,8.20
2022-11-09T10:00:52.373Z,8.27
2022-11-09T10:03:20.871Z,8.36
2022-11-09T10:05:58.442Z,8.43
2022-11-09T10:08:40.249Z,8.50
2022-11-09T10:11:12.743Z,8.59
2022-11-09T10:13:57.326Z,8.67
2022-11-09T10:16:33.280Z,8.73
2022-11-09T10:19:22.963Z,8.83
2022-11-09T10:21:54.889Z,8.93
2022-11-09T10:24:36.782Z,9.00
2022-11-09T10:27:05.878Z,9.09
2022-11-09T10:29:39.139Z,9.19
2022-11-09T10:32:12.677Z,9.30
2022-11-09T10:34:43.895Z,9.44
2022-11-09T10:37:15.756Z,9.51
2022-11-09T10:39:44.654Z,9.60
2022-11-09T10:42:11.563Z,9.71
2022-11-09T10:44:38.038Z,9.82
2022-11-09T10:47:07.480Z,9.93
2022-11-09T10:49:36.846Z,10.02
2022-11-09T10:52:04.336Z,10.13
2022-11-09T10:54:37.042Z,10.21
2022-11-09T10:57:09.137Z,10.27
2022-11-09T10:59:37.752Z,10.36
2022-11-09T11:02:24.071Z,10.45
2022-11-09T11:04:50.726Z,10.52
2022-11-09T11:07:21.888Z,10.56
2022-11-09T11:09:48.415Z,10.63
2022-11-09T11:12:16.095Z,10.69
2022-11-09T11:14:44.456Z,10.77
2022-11-09T11:17:24.919Z,10.83
2022-11-09T11:19:51.334Z,10.90
2022-11-09T11:22:19.445Z,10.94
2022-11-09T11:24:45.813Z,10.99
2022-11-09T11:27:27.096Z,11.05
2022-11-09T11:29:53.463Z,11.13
2022-11-09T11:32:20.517Z,11.20
2022-11-09T11:35:02.230Z,11.29
2022-11-09T11:37:28.754Z,11.34
2022-11-09T11:40:04.070Z,11.42
2022-11-09T11:42:49.358Z,11.48
2022-11-09T11:45:39.587Z,11.58
2022-11-09T11:48:11.492Z,11.56
2022-11-09T11:50:51.820Z,11.57
2022-11-09T11:53:30.563Z,11.64
2022-11-09T11:56:09.215Z,11.69
2022-11-09T11:58:51.003Z,11.76
2022-11-09T12:01:17.482Z,11.74
2022-11-09T12:04:02.675Z,11.77
2022-11-09T12:06:29.348Z,11.83
2022-11-09T12:08:55.785Z,11.85
2022-11-09T12:11:40.969Z,11.83
2022-11-09T12:14:21.742Z,11.84
2022-11-09T12:17:02.109Z,11.90
2022-11-09T12:19:40.756Z,11.98
2022-11-09T12:22:11.728Z,12.03
2022-11-09T12:24:38.140Z,12.02
2022-11-09T12:30:34.510Z,11.99
2022-11-09T12:33:07.636Z,11.99
2022-11-09T12:35:33.988Z,12.03
2022-11-09T12:38:02.908Z,12.05
2022-11-09T12:40:38.589Z,12.05
2022-11-09T12:43:15.548Z,12.05
2022-11-09T12:45:42.090Z,12.09
2022-11-09T12:48:29.310Z,12.18
2022-11-09T12:50:56.244Z,12.26
2022-11-09T12:53:25.487Z,12.29
2022-11-09T12:55:54.840Z,12.33
2022-11-09T12:58:29.167Z,12.37
2022-11-09T13:00:57.126Z,12.35
2022-11-09T13:03:33.455Z,12.37
2022-11-09T13:06:12.130Z,12.32
2022-11-09T13:08:39.997Z,12.31
2022-11-09T13:11:09.206Z,12.29
2022-11-09T13:13:36.069Z,12.30
2022-11-09T13:16:11.544Z,12.29
2022-11-09T13:18:42.878Z,12.25
2022-11-09T13:21:20.869Z,12.17
2022-11-09T13:24:00.646Z,12.07
2022-11-09T13:26:28.254Z,12.03
2022-11-09T13:29:24.246Z,11.99
2022-11-09T13:32:05.817Z,11.96
2022-11-09T13:34:39.217Z,11.98
2022-11-09T13:37:24.520Z,11.97
2022-11-09T13:39:50.926Z,11.91
2022-11-09T13:42:26.576Z,11.89
2022-11-09T13:44:53.387Z,11.89
2022-11-09T13:47:23.935Z,11.84
2022-11-09T13:49:50.972Z,11.87
2022-11-09T13:52:36.057Z,11.77
2022-11-09T13:55:02.910Z,11.73
2022-11-09T13:57:31.853Z,11.71
2022-11-09T13:59:59.416Z,11.69
2022-11-09T14:02:26.548Z,11.71
2022-11-09T14:04:54.236Z,11.70
2022-11-09T14:07:24.899Z,11.73
2022-11-09T14:10:11.212Z,11.76
2022-11-09T14:12:46.521Z,11.78
2022-11-09T14:15:31.243Z,11.70
2022-11-09T14:18:11.769Z,11.67
2022-11-09T14:20:43.203Z,11.63
2022-11-09T14:23:15.751Z,11.56
2022-11-09T14:25:42.316Z,11.50
2022-11-09T14:28:20.152Z,11.47
2022-11-09T14:30:46.838Z,11.46
2022-11-09T14:33:34.536Z,11.38
2022-11-09T14:36:02.378Z,11.30
2022-11-09T14:38:31.373Z,11.26
2022-11-09T14:40:57.791Z,11.21
2022-11-09T14:43:26.299Z,11.17
2022-11-09T14:45:54.391Z,11.09
2022-11-09T14:48:22.307Z,11.01
2022-11-09T14:50:50.191Z,10.94
2022-11-09T14:53:25.689Z,10.90
2022-11-09T14:55:53.669Z,10.84
2022-11-09T14:58:21.395Z,10.73
2022-11-09T15:01:06.500Z,10.70
2022-11-09T15:03:32.964Z,10.66
2022-11-09T15:06:11.558Z,10.65
2022-11-09T15:08:44.693Z,10.60
2022-11-09T15:11:11.086Z,10.60
2022-11-09T15:13:39.556Z,10.57
2022-11-09T15:16:06.354Z,10.50
2022-11-09T15:18:34.629Z,10.45
2022-11-09T15:21:19.996Z,10.40
2022-11-09T15:23:47.536Z,10.40
2022-11-09T15:26:24.984Z,10.37
2022-11-09T15:28:52.431Z,10.30
2022-11-09T15:31:19.529Z,10.23
2022-11-09T15:33:47.631Z,10.16
2022-11-09T15:36:33.768Z,10.11
2022-11-09T15:39:00.122Z,10.03
2022-11-09T15:41:26.642Z,9.96
2022-11-09T15:43:53.413Z,9.88
2022-11-09T15:46:21.716Z,9.82
2022-11-09T15:48:48.791Z,9.74
2022-11-09T15:51:15.914Z,9.68
2022-11-09T15:53:42.334Z,9.62
2022-11-09T15:56:17.335Z,9.57
2022-11-09T15:58:44.029Z,9.50
2022-11-09T16:01:11.002Z,9.45
2022-11-09T16:03:37.451Z,9.42
2022-11-09T16:06:03.924Z,9.40
2022-11-09T16:08:30.312Z,9.35
2022-11-09T16:10:56.698Z,9.30
2022-11-09T16:13:23.076Z,9.23
2022-11-09T16:15:49.450Z,9.20
2022-11-09T16:18:22.860Z,9.15
2022-11-09T16:20:52.000Z,9.12
2022-11-09T16:23:18.373Z,9.10
2022-11-09T16:25:44.859Z,9.07
2022-11-09T16:28:11.358Z,9.02
2022-11-09T16:30:40.500Z,8.98
2022-11-09T16:33:09.634Z,8.93
2022-11-09T16:35:36.075Z,8.90
2022-11-09T16:38:02.761Z,8.91
2022-11-09T16:40:29.470Z,8.87
2022-11-09T16:42:55.886Z,8.87
2022-11-09T16:45:22.526Z,8.86
2022-11-09T16:47:51.097Z,8.84
2022-11-09T16:50:17.488Z,8.77
2022-11-09T16:52:44.732Z,8.71
2022-11-09T16:55:11.173Z,8.66
2022-11-09T16:57:37.629Z,8.61
2022-11-09T17:00:05.707Z,8.55
2022-11-09T17:02:32.209Z,8.55
2022-11-09T17:04:58.623Z,8.54
2022-11-09T17:07:25.001Z,8.52
2022-11-09T17:09:51.392Z,8.49
2022-11-09T17:12:17.808Z,8.44
2022-11-09T17:14:44.176Z,8.45
2022-11-09T17:17:10.662Z,8.41
2022-11-09T17:19:37.306Z,8.37
2022-11-09T17:22:04.521Z,8.33
2022-11-09T17:24:31.618Z,8.31
2022-11-09T17:26:57.993Z,8.34
2022-11-09T17:29:24.760Z,8.35
2022-11-09T17:31:51.312Z,8.33
2022-11-09T17:34:17.737Z,8.31
2022-11-09T17:39:30.640Z,8.20
2022-11-09T17:41:57.085Z,8.17
2022-11-09T17:44:23.479Z,8.11
2022-11-09T17:46:49.922Z,8.05
2022-11-09T17:49:16.322Z,8.05
2022-11-09T17:51:42.744Z,7.94
2022-11-09T17:54:09.159Z,7.91
2022-11-09T17:56:35.898Z,7.95
2022-11-09T17:59:03.617Z,7.99
2022-11-09T18:01:30.718Z,8.03
2022-11-09T18:03:57.154Z,7.95
2022-11-09T18:06:24.180Z,7.89
2022-11-09T18:09:10.739Z,7.87
2022-11-09T18:11:37.084Z,7.89
2022-11-09T18:14:03.854Z,7.91
2022-11-09T18:16:30.321Z,7.91
2022-11-09T18:19:01.445Z,7.89
2022-11-09T18:21:28.679Z,7.89
2022-11-09T18:23:55.227Z,7.90
2022-11-09T18:26:22.041Z,7.91
2022-11-09T18:28:48.484Z,7.92
2022-11-09T18:31:14.988Z,7.99
2022-11-09T18:33:42.771Z,8.03
2022-11-09T18:36:15.023Z,8.11
2022-11-09T18:38:42.262Z,8.15
2022-11-09T18:41:12.798Z,8.18
2022-11-09T18:43:39.339Z,8.21
2022-11-09T18:46:07.058Z,8.24
2022-11-09T18:48:34.086Z,8.24
2022-11-09T18:51:00.837Z,8.26
2022-11-09T18:53:28.624Z,8.29
2022-11-09T18:56:06.287Z,8.29
2022-11-09T18:58:33.356Z,8.26
2022-11-09T19:01:00.801Z,8.27
2022-11-09T19:03:27.509Z,8.28
2022-11-09T19:05:53.961Z,8.32
2022-11-09T19:08:40.544Z,8.37
2022-11-09T19:11:09.932Z,8.41
2022-11-09T19:13:36.995Z,8.44
2022-11-09T19:16:03.766Z,8.47
2022-11-09T19:18:30.173Z,8.49
2022-11-09T19:20:56.557Z,8.51
2022-11-09T19:23:23.068Z,8.49
2022-11-09T19:25:50.282Z,8.49
2022-11-09T19:28:16.660Z,8.54
2022-11-09T19:30:43.174Z,8.57
2022-11-09T19:33:09.551Z,8.57
2022-11-09T19:35:35.912Z,8.54
2022-11-09T19:38:06.212Z,8.57
2022-11-09T19:40:38.362Z,8.55
2022-11-09T19:43:05.989Z,8.54
2022-11-09T19:45:32.388Z,8.56
2022-11-09T19:47:58.883Z,8.57
2022-11-09T19:50:25.291Z,8.57
2022-11-09T19:52:51.656Z,8.56
2022-11-09T19:55:18.095Z,8.56
2022-11-09T19:57:44.494Z,8.53
2022-11-09T20:00:11.325Z,8.53
2022-11-09T20:02:37.704Z,8.52
2022-11-09T20:05:04.361Z,8.53
2022-11-09T20:07:32.083Z,8.53
2022-11-09T20:09:58.501Z,8.51
2022-11-09T20:12:43.655Z,8.51
2022-11-09T20:15:10.068Z,8.50
2022-11-09T20:17:36.967Z,8.49
2022-11-09T20:20:03.484Z,8.48
2022-11-09T20:22:29.882Z,8.47
2022-11-09T20:24:56.257Z,8.45
2022-11-09T20:27:22.632Z,8.36
2022-11-09T20:29:49.018Z,8.36
2022-11-09T20:32:20.431Z,8.40
2022-11-09T20:34:49.441Z,8.43
2022-11-09T20:37:16.686Z,8.38
2022-11-09T20:39:43.270Z,8.36
2022-11-09T20:42:10.391Z,8.42
2022-11-09T20:44:36.961Z,8.42
2022-11-09T20:47:03.765Z,8.48
2022-11-09T20:49:30.143Z,8.54
2022-11-09T20:51:56.547Z,8.63
2022-11-09T20:54:22.987Z,8.71
2022-11-09T20:56:49.372Z,8.79
2022-11-09T20:59:15.987Z,8.82
2022-11-09T21:01:42.413Z,8.81
2022-11-09T21:04:09.384Z,8.81
2022-11-09T21:06:35.793Z,8.77
2022-11-09T21:09:04.665Z,8.70
2022-11-09T21:11:57.290Z,8.66
2022-11-09T21:14:23.788Z,8.64
2022-11-09T21:16:50.159Z,8.59
2022-11-09T21:19:16.544Z,8.56
2022-11-09T21:21:43.037Z,8.50
2022-11-09T21:24:28.342Z,8.44
2022-11-09T21:27:13.118Z,8.47
2022-11-09T21:29:51.621Z,8.54
2022-11-09T21:32:23.131Z,8.55
2022-11-09T21:34:50.639Z,8.52
2022-11-09T21:37:17.268Z,8.49
2022-11-09T21:39:43.829Z,8.48
2022-11-09T21:42:13.826Z,8.45
2022-11-09T21:44:40.282Z,8.43
2022-11-09T21:47:07.222Z,8.40
2022-11-09T21:49:33.649Z,8.35
2022-11-09T21:52:00.093Z,8.33
2022-11-09T21:54:26.675Z,8.32
2022-11-09T21:56:53.144Z,8.31
2022-11-09T21:59:19.643Z,8.33
2022-11-09T22:01:46.097Z,8.32
2022-11-09T22:04:12.582Z,8.28
2022-11-09T22:06:39.812Z,8.26
2022-11-09T22:09:07.113Z,8.21
2022-11-09T22:11:51.998Z,8.16
2022-11-09T22:14:37.916Z,8.15
2022-11-09T22:17:05.400Z,8.11
2022-11-09T22:19:50.248Z,8.11
2022-11-09T22:22:16.643Z,8.09
2022-11-09T22:24:43.055Z,8.12
2022-11-09T22:27:09.833Z,8.11
2022-11-09T22:29:36.314Z,8.10
2022-11-09T22:32:02.800Z,8.09
2022-11-09T22:34:29.429Z,8.09
2022-11-09T22:36:56.017Z,8.10
2022-11-09T22:39:22.816Z,8.07
2022-11-09T22:41:49.340Z,8.01
2022-11-09T22:44:15.756Z,7.98
2022-11-09T22:46:42.144Z,7.92
2022-11-09T22:49:08.656Z,7.86
2022-11-09T22:51:35.161Z,7.81
2022-11-09T22:54:01.843Z,7.77
2022-11-09T22:56:28.236Z,7.74
2022-11-09T22:58:54.633Z,7.72
2022-11-09T23:01:21.485Z,7.66
2022-11-09T23:03:47.908Z,7.63
2022-11-09T23:06:21.184Z,7.58
2022-11-09T23:08:49.519Z,7.50
2022-11-09T23:11:18.324Z,7.46
2022-11-09T23:13:47.807Z,7.46
2022-11-09T23:16:14.201Z,7.45
2022-11-09T23:18:55.975Z,7.44
2022-11-09T23:21:24.374Z,7.40
2022-11-09T23:23:51.250Z,7.34
2022-11-09T23:26:18.176Z,7.27
2022-11-09T23:28:44.619Z,7.21
2022-11-09T23:31:12.371Z,7.17
2022-11-09T23:33:39.267Z,7.18
2022-11-09T23:36:06.734Z,7.19
2022-11-09T23:38:33.795Z,7.14
2022-11-09T23:41:04.060Z,7.07
2022-11-09T23:43:30.854Z,7.02
2022-11-09T23:46:00.533Z,7.01
2022-11-09T23:48:26.898Z,6.97
2022-11-09T23:50:56.599Z,6.94
2022-11-09T23:53:23.300Z,6.89
2022-11-09T23:55:50.155Z,6.83
2022-11-09T23:58:16.575Z,6.84
